sensor_id;sensor_type;location;lat;lon;timestamp;pressure;altitude;pressure_sealevel;temperature;humidity
51239;BME280;38154;47.548;18.828;2023-07-29T00:00:43;98370.91;;;18.40;100.00
51239;BME280;38154;47.548;18.828;2023-07-29T00:03:09;98369.13;;;18.41;100.00
51239;BME280;38154;47.548;18.828;2023-07-29T00:05:39;98370.75;;;18.43;100.00
51239;BME280;38154;47.548;18.828;2023-07-29T00:08:05;98369.81;;;18.46;100.00
51239;BME280;38154;47.548;18.828;2023-07-29T00:10:31;98368.94;;;18.45;100.00
51239;BME280;38154;47.548;18.828;2023-07-29T00:12:58;98371.53;;;18.47;100.00
51239;BME280;38154;47.548;18.828;2023-07-29T00:15:24;98369.06;;;18.42;100.00
51239;BME280;38154;47.548;18.828;2023-07-29T00:17:50;98367.50;;;18.36;100.00
51239;BME280;38154;47.548;18.828;2023-07-29T00:20:16;98357.28;;;18.27;100.00
51239;BME280;38154;47.548;18.828;2023-07-29T00:22:41;98362.50;;;18.29;100.00
51239;BME280;38154;47.548;18.828;2023-07-29T00:25:07;98354.53;;;18.30;100.00
51239;BME280;38154;47.548;18.828;2023-07-29T00:27:33;98355.50;;;18.28;100.00
51239;BME280;38154;47.548;18.828;2023-07-29T00:29:59;98360.84;;;18.26;100.00
51239;BME280;38154;47.548;18.828;2023-07-29T00:32:29;98357.34;;;18.26;100.00
51239;BME280;38154;47.548;18.828;2023-07-29T00:34:55;98354.06;;;18.19;100.00
51239;BME280;38154;47.548;18.828;2023-07-29T00:37:21;98354.28;;;18.13;100.00
51239;BME280;38154;47.548;18.828;2023-07-29T00:39:46;98349.34;;;18.04;100.00
51239;BME280;38154;47.548;18.828;2023-07-29T00:42:12;98361.09;;;17.95;100.00
51239;BME280;38154;47.548;18.828;2023-07-29T00:44:38;98358.78;;;17.84;100.00
51239;BME280;38154;47.548;18.828;2023-07-29T00:47:04;98356.47;;;17.75;100.00
51239;BME280;38154;47.548;18.828;2023-07-29T00:49:31;98360.97;;;17.71;100.00
51239;BME280;38154;47.548;18.828;2023-07-29T00:51:58;98358.56;;;17.65;100.00
51239;BME280;38154;47.548;18.828;2023-07-29T00:54:24;98354.34;;;17.59;100.00
51239;BME280;38154;47.548;18.828;2023-07-29T00:56:50;98348.50;;;17.51;100.00
51239;BME280;38154;47.548;18.828;2023-07-29T00:59:16;98346.22;;;17.40;100.00
51239;BME280;38154;47.548;18.828;2023-07-29T01:01:42;98342.91;;;17.34;100.00
51239;BME280;38154;47.548;18.828;2023-07-29T01:04:08;98341.31;;;17.30;100.00
51239;BME280;38154;47.548;18.828;2023-07-29T01:06:36;98342.25;;;17.27;100.00
51239;BME280;38154;47.548;18.828;2023-07-29T01:09:10;98341.44;;;17.25;100.00
51239;BME280;38154;47.548;18.828;2023-07-29T01:12:01;98332.66;;;17.26;100.00
51239;BME280;38154;47.548;18.828;2023-07-29T01:14:38;98344.09;;;17.25;100.00
51239;BME280;38154;47.548;18.828;2023-07-29T01:17:08;98347.63;;;17.24;100.00
51239;BME280;38154;47.548;18.828;2023-07-29T01:22:20;98341.31;;;17.30;100.00
51239;BME280;38154;47.548;18.828;2023-07-29T01:24:46;98339.47;;;17.32;100.00
51239;BME280;38154;47.548;18.828;2023-07-29T01:27:12;98349.31;;;17.27;100.00
51239;BME280;38154;47.548;18.828;2023-07-29T01:29:37;98346.81;;;17.22;100.00
51239;BME280;38154;47.548;18.828;2023-07-29T01:32:11;98349.50;;;17.20;100.00
51239;BME280;38154;47.548;18.828;2023-07-29T01:34:51;98350.34;;;17.21;100.00
51239;BME280;38154;47.548;18.828;2023-07-29T01:37:22;98346.00;;;17.20;100.00
51239;BME280;38154;47.548;18.828;2023-07-29T01:39:54;98349.44;;;17.22;100.00
51239;BME280;38154;47.548;18.828;2023-07-29T01:42:23;98352.97;;;17.21;100.00
51239;BME280;38154;47.548;18.828;2023-07-29T01:44:49;98348.69;;;17.18;100.00
51239;BME280;38154;47.548;18.828;2023-07-29T01:47:16;98356.66;;;17.17;100.00
51239;BME280;38154;47.548;18.828;2023-07-29T01:49:42;98357.53;;;17.16;100.00
51239;BME280;38154;47.548;18.828;2023-07-29T01:52:08;98355.97;;;17.10;100.00
51239;BME280;38154;47.548;18.828;2023-07-29T01:54:33;98356.22;;;17.02;100.00
51239;BME280;38154;47.548;18.828;2023-07-29T01:56:59;98353.75;;;16.98;100.00
51239;BME280;38154;47.548;18.828;2023-07-29T01:59:25;98344.28;;;16.91;100.00
51239;BME280;38154;47.548;18.828;2023-07-29T02:01:51;98353.22;;;16.86;100.00
51239;BME280;38154;47.548;18.828;2023-07-29T02:04:17;98344.66;;;16.78;100.00
51239;BME280;38154;47.548;18.828;2023-07-29T02:06:43;98343.03;;;16.74;100.00
51239;BME280;38154;47.548;18.828;2023-07-29T02:09:09;98338.75;;;16.70;100.00
51239;BME280;38154;47.548;18.828;2023-07-29T02:11:35;98340.56;;;16.68;100.00
51239;BME280;38154;47.548;18.828;2023-07-29T02:14:00;98350.28;;;16.66;100.00
51239;BME280;38154;47.548;18.828;2023-07-29T02:16:26;98343.38;;;16.62;100.00
51239;BME280;38154;47.548;18.828;2023-07-29T02:18:52;98352.38;;;16.55;100.00
51239;BME280;38154;47.548;18.828;2023-07-29T02:21:18;98356.97;;;16.48;100.00
51239;BME280;38154;47.548;18.828;2023-07-29T02:23:44;98349.25;;;16.42;100.00
51239;BME280;38154;47.548;18.828;2023-07-29T02:26:10;98347.63;;;16.38;100.00
51239;BME280;38154;47.548;18.828;2023-07-29T02:28:36;98346.69;;;16.39;100.00
51239;BME280;38154;47.548;18.828;2023-07-29T02:31:22;98348.34;;;16.43;100.00
51239;BME280;38154;47.548;18.828;2023-07-29T02:33:48;98353.72;;;16.38;100.00
51239;BME280;38154;47.548;18.828;2023-07-29T02:36:15;98353.00;;;16.33;100.00
51239;BME280;38154;47.548;18.828;2023-07-29T02:38:41;98352.25;;;16.29;100.00
51239;BME280;38154;47.548;18.828;2023-07-29T02:41:08;98360.25;;;16.25;100.00
51239;BME280;38154;47.548;18.828;2023-07-29T02:43:38;98353.31;;;16.22;100.00
51239;BME280;38154;47.548;18.828;2023-07-29T02:46:04;98356.00;;;16.21;100.00
51239;BME280;38154;47.548;18.828;2023-07-29T02:48:30;98351.66;;;16.18;100.00
51239;BME280;38154;47.548;18.828;2023-07-29T02:50:56;98357.06;;;16.13;100.00
51239;BME280;38154;47.548;18.828;2023-07-29T02:53:22;98357.16;;;16.10;100.00
51239;BME280;38154;47.548;18.828;2023-07-29T02:55:49;98352.75;;;16.11;100.00
51239;BME280;38154;47.548;18.828;2023-07-29T02:58:14;98359.78;;;16.10;100.00
51239;BME280;38154;47.548;18.828;2023-07-29T03:00:40;98357.25;;;16.07;100.00
51239;BME280;38154;47.548;18.828;2023-07-29T03:03:08;98367.88;;;16.03;100.00
51239;BME280;38154;47.548;18.828;2023-07-29T03:05:34;98369.78;;;15.98;100.00
51239;BME280;38154;47.548;18.828;2023-07-29T03:08:00;98366.34;;;15.95;100.00
51239;BME280;38154;47.548;18.828;2023-07-29T03:10:26;98361.13;;;15.94;100.00
51239;BME280;38154;47.548;18.828;2023-07-29T03:12:56;98366.34;;;15.95;100.00
51239;BME280;38154;47.548;18.828;2023-07-29T03:15:25;98364.56;;;15.96;100.00
51239;BME280;38154;47.548;18.828;2023-07-29T03:17:52;98365.38;;;15.98;100.00
51239;BME280;38154;47.548;18.828;2023-07-29T03:20:18;98364.41;;;16.02;100.00
51239;BME280;38154;47.548;18.828;2023-07-29T03:22:44;98364.41;;;16.02;100.00
51239;BME280;38154;47.548;18.828;2023-07-29T03:25:10;98358.19;;;16.05;100.00
51239;BME280;38154;47.548;18.828;2023-07-29T03:27:36;98356.34;;;16.07;100.00
51239;BME280;38154;47.548;18.828;2023-07-29T03:30:03;98352.84;;;16.08;100.00
51239;BME280;38154;47.548;18.828;2023-07-29T03:32:29;98366.84;;;16.08;100.00
51239;BME280;38154;47.548;18.828;2023-07-29T03:34:55;98371.25;;;16.08;100.00
51239;BME280;38154;47.548;18.828;2023-07-29T03:37:21;98370.25;;;16.12;100.00
51239;BME280;38154;47.548;18.828;2023-07-29T03:39:47;98377.25;;;16.13;100.00
51239;BME280;38154;47.548;18.828;2023-07-29T03:42:13;98368.47;;;16.14;100.00
51239;BME280;38154;47.548;18.828;2023-07-29T03:44:39;98376.38;;;16.12;100.00
51239;BME280;38154;47.548;18.828;2023-07-29T03:47:06;98369.28;;;16.16;100.00
51239;BME280;38154;47.548;18.828;2023-07-29T03:49:32;98366.38;;;16.25;100.00
51239;BME280;38154;47.548;18.828;2023-07-29T03:51:58;98367.00;;;16.33;100.00
51239;BME280;38154;47.548;18.828;2023-07-29T03:54:23;98366.75;;;16.43;100.00
51239;BME280;38154;47.548;18.828;2023-07-29T03:56:49;98365.50;;;16.56;100.00
51239;BME280;38154;47.548;18.828;2023-07-29T03:59:16;98372.16;;;16.68;100.00
51239;BME280;38154;47.548;18.828;2023-07-29T04:01:42;98364.78;;;16.81;100.00
51239;BME280;38154;47.548;18.828;2023-07-29T04:04:08;98370.63;;;16.91;100.00
51239;BME280;38154;47.548;18.828;2023-07-29T04:06:34;98376.47;;;17.00;100.00
51239;BME280;38154;47.548;18.828;2023-07-29T04:09:00;98377.91;;;17.11;100.00
51239;BME280;38154;47.548;18.828;2023-07-29T04:11:26;98375.88;;;17.19;100.00
51239;BME280;38154;47.548;18.828;2023-07-29T04:13:52;98371.28;;;17.25;100.00
51239;BME280;38154;47.548;18.828;2023-07-29T04:16:18;98375.50;;;17.31;100.00
51239;BME280;38154;47.548;18.828;2023-07-29T04:18:44;98371.72;;;17.40;100.00
51239;BME280;38154;47.548;18.828;2023-07-29T04:21:10;98380.00;;;17.54;100.00
51239;BME280;38154;47.548;18.828;2023-07-29T04:23:36;98369.78;;;17.72;100.00
51239;BME280;38154;47.548;18.828;2023-07-29T04:26:02;98374.88;;;18.03;100.00
51239;BME280;38154;47.548;18.828;2023-07-29T04:28:28;98369.78;;;18.22;100.00
51239;BME280;38154;47.548;18.828;2023-07-29T04:30:54;98372.78;;;18.36;100.00
51239;BME280;38154;47.548;18.828;2023-07-29T04:33:20;98369.28;;;18.36;100.00
51239;BME280;38154;47.548;18.828;2023-07-29T04:35:46;98372.44;;;18.22;100.00
51239;BME280;38154;47.548;18.828;2023-07-29T04:38:12;98361.59;;;18.05;100.00
51239;BME280;38154;47.548;18.828;2023-07-29T04:40:38;98367.28;;;17.94;100.00
51239;BME280;38154;47.548;18.828;2023-07-29T04:43:04;98374.03;;;18.01;100.00
51239;BME280;38154;47.548;18.828;2023-07-29T04:45:30;98378.06;;;18.11;100.00
51239;BME280;38154;47.548;18.828;2023-07-29T04:47:57;98376.63;;;18.28;100.00
51239;BME280;38154;47.548;18.828;2023-07-29T04:50:24;98376.47;;;18.56;100.00
51239;BME280;38154;47.548;18.828;2023-07-29T04:52:50;98382.03;;;18.96;100.00
51239;BME280;38154;47.548;18.828;2023-07-29T04:55:15;98374.81;;;19.43;100.00
51239;BME280;38154;47.548;18.828;2023-07-29T04:57:41;98389.72;;;20.09;100.00
51239;BME280;38154;47.548;18.828;2023-07-29T05:00:07;98390.81;;;20.65;100.00
51239;BME280;38154;47.548;18.828;2023-07-29T05:02:33;98387.84;;;21.09;100.00
51239;BME280;38154;47.548;18.828;2023-07-29T05:04:59;98387.50;;;21.54;100.00
51239;BME280;38154;47.548;18.828;2023-07-29T05:07:25;98387.66;;;21.68;100.00
51239;BME280;38154;47.548;18.828;2023-07-29T05:09:51;98383.22;;;22.03;100.00
51239;BME280;38154;47.548;18.828;2023-07-29T05:12:17;98395.38;;;22.76;100.00
51239;BME280;38154;47.548;18.828;2023-07-29T05:14:43;98390.00;;;23.25;95.21
51239;BME280;38154;47.548;18.828;2023-07-29T05:17:08;98404.66;;;23.79;91.57
51239;BME280;38154;47.548;18.828;2023-07-29T05:19:34;98411.06;;;24.21;85.49
51239;BME280;38154;47.548;18.828;2023-07-29T05:22:00;98420.00;;;24.05;86.00
51239;BME280;38154;47.548;18.828;2023-07-29T05:24:26;98420.41;;;23.83;89.51
51239;BME280;38154;47.548;18.828;2023-07-29T05:26:52;98428.09;;;23.42;93.72
51239;BME280;38154;47.548;18.828;2023-07-29T05:29:18;98433.94;;;23.17;97.65
51239;BME280;38154;47.548;18.828;2023-07-29T05:31:44;98436.16;;;23.24;95.27
51239;BME280;38154;47.548;18.828;2023-07-29T05:34:10;98430.41;;;23.32;96.11
51239;BME280;38154;47.548;18.828;2023-07-29T05:36:36;98429.63;;;23.46;95.96
51239;BME280;38154;47.548;18.828;2023-07-29T05:39:02;98438.75;;;23.42;95.13
51239;BME280;38154;47.548;18.828;2023-07-29T05:41:27;98438.28;;;23.49;91.84
51239;BME280;38154;47.548;18.828;2023-07-29T05:43:54;98436.41;;;23.51;91.16
51239;BME280;38154;47.548;18.828;2023-07-29T05:46:20;98433.50;;;23.24;92.61
51239;BME280;38154;47.548;18.828;2023-07-29T05:48:46;98446.87;;;23.39;92.21
51239;BME280;38154;47.548;18.828;2023-07-29T05:51:12;98451.25;;;23.56;90.47
51239;BME280;38154;47.548;18.828;2023-07-29T05:53:38;98455.38;;;23.45;89.58
51239;BME280;38154;47.548;18.828;2023-07-29T05:56:03;98464.16;;;23.31;91.47
51239;BME280;38154;47.548;18.828;2023-07-29T05:58:30;98453.59;;;23.30;90.76
51239;BME280;38154;47.548;18.828;2023-07-29T06:00:57;98458.72;;;23.17;93.47
51239;BME280;38154;47.548;18.828;2023-07-29T06:03:23;98457.78;;;23.18;93.13
51239;BME280;38154;47.548;18.828;2023-07-29T06:05:49;98461.47;;;23.63;87.34
51239;BME280;38154;47.548;18.828;2023-07-29T06:08:15;98467.91;;;23.59;86.57
51239;BME280;38154;47.548;18.828;2023-07-29T06:10:41;98471.72;;;24.01;85.60
51239;BME280;38154;47.548;18.828;2023-07-29T06:13:07;98472.75;;;24.59;82.77
51239;BME280;38154;47.548;18.828;2023-07-29T06:15:33;98472.84;;;25.15;78.12
51239;BME280;38154;47.548;18.828;2023-07-29T06:17:59;98469.00;;;26.03;72.53
51239;BME280;38154;47.548;18.828;2023-07-29T06:20:25;98482.56;;;26.91;66.87
51239;BME280;38154;47.548;18.828;2023-07-29T06:22:51;98481.19;;;26.86;65.10
51239;BME280;38154;47.548;18.828;2023-07-29T06:25:16;98485.03;;;26.43;68.68
51239;BME280;38154;47.548;18.828;2023-07-29T06:27:42;98483.13;;;25.90;70.33
51239;BME280;38154;47.548;18.828;2023-07-29T06:30:08;98489.34;;;27.47;66.46
51239;BME280;38154;47.548;18.828;2023-07-29T06:32:34;98496.12;;;28.72;60.42
51239;BME280;38154;47.548;18.828;2023-07-29T06:35:00;98496.56;;;30.22;54.01
51239;BME280;38154;47.548;18.828;2023-07-29T06:37:26;98490.13;;;31.29;51.19
51239;BME280;38154;47.548;18.828;2023-07-29T06:39:51;98497.78;;;30.71;52.01
51239;BME280;38154;47.548;18.828;2023-07-29T06:42:17;98488.19;;;30.37;51.45
51239;BME280;38154;47.548;18.828;2023-07-29T06:44:43;98496.09;;;31.32;48.67
51239;BME280;38154;47.548;18.828;2023-07-29T06:47:12;98498.19;;;34.07;42.40
51239;BME280;38154;47.548;18.828;2023-07-29T06:49:38;98513.75;;;35.97;37.10
51239;BME280;38154;47.548;18.828;2023-07-29T06:52:04;98509.25;;;37.75;33.29
51239;BME280;38154;47.548;18.828;2023-07-29T06:54:30;98509.75;;;38.71;31.57
51239;BME280;38154;47.548;18.828;2023-07-29T06:56:56;98514.72;;;39.87;29.85
51239;BME280;38154;47.548;18.828;2023-07-29T06:59:21;98508.72;;;40.56;30.33
51239;BME280;38154;47.548;18.828;2023-07-29T07:01:47;98515.31;;;42.55;25.30
51239;BME280;38154;47.548;18.828;2023-07-29T07:04:13;98520.16;;;42.47;25.25
51239;BME280;38154;47.548;18.828;2023-07-29T07:06:39;98514.66;;;41.58;26.64
51239;BME280;38154;47.548;18.828;2023-07-29T07:09:05;98509.72;;;39.91;28.54
51239;BME280;38154;47.548;18.828;2023-07-29T07:11:31;98500.78;;;38.25;30.25
51239;BME280;38154;47.548;18.828;2023-07-29T07:13:57;98493.94;;;35.54;35.06
51239;BME280;38154;47.548;18.828;2023-07-29T07:16:23;98483.97;;;33.87;38.43
51239;BME280;38154;47.548;18.828;2023-07-29T07:18:49;98494.13;;;33.20;40.34
51239;BME280;38154;47.548;18.828;2023-07-29T07:21:14;98485.88;;;32.74;40.40
51239;BME280;38154;47.548;18.828;2023-07-29T07:23:40;98482.63;;;32.70;40.94
51239;BME280;38154;47.548;18.828;2023-07-29T07:26:06;98489.59;;;32.24;41.37
51239;BME280;38154;47.548;18.828;2023-07-29T07:28:32;98483.75;;;31.70;42.92
51239;BME280;38154;47.548;18.828;2023-07-29T07:30:58;98485.19;;;32.72;41.02
51239;BME280;38154;47.548;18.828;2023-07-29T07:33:24;98480.62;;;34.11;39.04
51239;BME280;38154;47.548;18.828;2023-07-29T07:35:50;98490.66;;;36.91;34.04
51239;BME280;38154;47.548;18.828;2023-07-29T07:38:16;98493.72;;;39.51;29.12
51239;BME280;38154;47.548;18.828;2023-07-29T07:40:52;98491.00;;;40.31;28.42
51239;BME280;38154;47.548;18.828;2023-07-29T07:43:18;98491.34;;;40.92;27.74
51239;BME280;38154;47.548;18.828;2023-07-29T07:45:44;98498.66;;;42.77;25.67
51239;BME280;38154;47.548;18.828;2023-07-29T07:48:10;98502.88;;;42.79;24.38
51239;BME280;38154;47.548;18.828;2023-07-29T07:50:39;98495.50;;;42.73;24.49
51239;BME280;38154;47.548;18.828;2023-07-29T07:53:05;98487.06;;;42.95;25.30
51239;BME280;38154;47.548;18.828;2023-07-29T07:55:31;98500.13;;;42.39;24.77
51239;BME280;38154;47.548;18.828;2023-07-29T07:57:57;98495.91;;;42.57;25.06
51239;BME280;38154;47.548;18.828;2023-07-29T08:00:23;98499.69;;;41.61;25.42
51239;BME280;38154;47.548;18.828;2023-07-29T08:02:48;98498.03;;;42.75;25.45
51239;BME280;38154;47.548;18.828;2023-07-29T08:05:14;98491.78;;;43.33;24.71
51239;BME280;38154;47.548;18.828;2023-07-29T08:07:40;98487.66;;;43.04;23.47
51239;BME280;38154;47.548;18.828;2023-07-29T08:10:06;98489.12;;;42.13;25.39
51239;BME280;38154;47.548;18.828;2023-07-29T08:12:32;98491.16;;;41.84;25.25
51239;BME280;38154;47.548;18.828;2023-07-29T08:14:58;98486.44;;;41.23;25.71
51239;BME280;38154;47.548;18.828;2023-07-29T08:17:24;98478.03;;;41.24;25.76
51239;BME280;38154;47.548;18.828;2023-07-29T08:19:50;98468.66;;;40.20;27.13
51239;BME280;38154;47.548;18.828;2023-07-29T08:22:16;98480.34;;;41.21;25.51
51239;BME280;38154;47.548;18.828;2023-07-29T08:24:43;98470.13;;;40.66;26.83
51239;BME280;38154;47.548;18.828;2023-07-29T08:27:09;98477.47;;;41.84;25.81
51239;BME280;38154;47.548;18.828;2023-07-29T08:29:35;98480.53;;;42.62;24.16
51239;BME280;38154;47.548;18.828;2023-07-29T08:32:01;98485.78;;;43.04;23.72
51239;BME280;38154;47.548;18.828;2023-07-29T08:34:26;98484.75;;;42.65;24.44
51239;BME280;38154;47.548;18.828;2023-07-29T08:36:52;98470.53;;;42.01;24.57
51239;BME280;38154;47.548;18.828;2023-07-29T08:39:18;98468.03;;;43.00;22.95
51239;BME280;38154;47.548;18.828;2023-07-29T08:42:08;98472.94;;;42.65;23.38
51239;BME280;38154;47.548;18.828;2023-07-29T08:44:42;98472.91;;;42.24;25.04
51239;BME280;38154;47.548;18.828;2023-07-29T08:47:08;98467.69;;;41.13;25.03
51239;BME280;38154;47.548;18.828;2023-07-29T08:49:35;98475.88;;;42.70;23.79
51239;BME280;38154;47.548;18.828;2023-07-29T08:52:01;98469.75;;;42.88;22.53
51239;BME280;38154;47.548;18.828;2023-07-29T08:54:27;98470.78;;;43.00;23.72
51239;BME280;38154;47.548;18.828;2023-07-29T08:56:54;98468.22;;;43.12;23.87
51239;BME280;38154;47.548;18.828;2023-07-29T08:59:20;98463.88;;;43.95;22.01
51239;BME280;38154;47.548;18.828;2023-07-29T09:01:47;98456.78;;;44.37;20.49
51239;BME280;38154;47.548;18.828;2023-07-29T09:04:13;98458.66;;;44.43;21.45
51239;BME280;38154;47.548;18.828;2023-07-29T09:06:39;98462.88;;;43.82;21.61
51239;BME280;38154;47.548;18.828;2023-07-29T09:09:07;98457.28;;;43.57;23.10
51239;BME280;38154;47.548;18.828;2023-07-29T09:11:33;98454.94;;;43.61;22.35
51239;BME280;38154;47.548;18.828;2023-07-29T09:13:59;98456.22;;;42.99;22.20
51239;BME280;38154;47.548;18.828;2023-07-29T09:16:25;98447.00;;;42.67;22.15
51239;BME280;38154;47.548;18.828;2023-07-29T09:18:51;98453.47;;;41.86;24.04
51239;BME280;38154;47.548;18.828;2023-07-29T09:21:23;98452.72;;;42.52;23.53
51239;BME280;38154;47.548;18.828;2023-07-29T09:23:50;98447.16;;;42.99;22.05
51239;BME280;38154;47.548;18.828;2023-07-29T09:26:24;98451.00;;;42.51;23.21
51239;BME280;38154;47.548;18.828;2023-07-29T09:28:54;98449.28;;;42.70;22.58
51239;BME280;38154;47.548;18.828;2023-07-29T09:31:28;98442.53;;;42.79;21.89
51239;BME280;38154;47.548;18.828;2023-07-29T09:34:03;98436.19;;;43.06;21.83
51239;BME280;38154;47.548;18.828;2023-07-29T09:36:33;98448.69;;;43.47;21.21
51239;BME280;38154;47.548;18.828;2023-07-29T09:38:59;98428.44;;;42.36;21.84
51239;BME280;38154;47.548;18.828;2023-07-29T09:41:27;98429.03;;;41.84;23.27
51239;BME280;38154;47.548;18.828;2023-07-29T09:43:58;98428.88;;;41.38;24.65
51239;BME280;38154;47.548;18.828;2023-07-29T09:46:25;98428.97;;;41.16;23.50
51239;BME280;38154;47.548;18.828;2023-07-29T09:48:53;98422.59;;;41.02;23.78
51239;BME280;38154;47.548;18.828;2023-07-29T09:51:22;98428.06;;;41.50;22.53
51239;BME280;38154;47.548;18.828;2023-07-29T09:53:50;98422.34;;;42.20;21.93
51239;BME280;38154;47.548;18.828;2023-07-29T09:56:17;98421.00;;;41.69;23.10
51239;BME280;38154;47.548;18.828;2023-07-29T09:58:44;98411.59;;;40.32;24.95
51239;BME280;38154;47.548;18.828;2023-07-29T10:01:12;98407.94;;;40.47;26.48
51239;BME280;38154;47.548;18.828;2023-07-29T10:03:38;98416.56;;;40.78;25.03
51239;BME280;38154;47.548;18.828;2023-07-29T10:06:05;98408.03;;;37.80;26.76
51239;BME280;38154;47.548;18.828;2023-07-29T10:08:32;98398.81;;;37.58;28.32
51239;BME280;38154;47.548;18.828;2023-07-29T10:11:01;98396.62;;;37.22;29.18
51239;BME280;38154;47.548;18.828;2023-07-29T10:13:28;98394.75;;;36.83;30.11
51239;BME280;38154;47.548;18.828;2023-07-29T10:15:54;98398.81;;;36.79;30.73
51239;BME280;38154;47.548;18.828;2023-07-29T10:18:24;98397.50;;;36.58;31.89
51239;BME280;38154;47.548;18.828;2023-07-29T10:20:51;98393.44;;;35.63;30.76
51239;BME280;38154;47.548;18.828;2023-07-29T10:23:18;98392.09;;;35.08;32.18
51239;BME280;38154;47.548;18.828;2023-07-29T10:25:47;98396.59;;;34.13;34.16
51239;BME280;38154;47.548;18.828;2023-07-29T10:28:15;98392.72;;;33.61;35.94
51239;BME280;38154;47.548;18.828;2023-07-29T10:30:43;98392.47;;;34.53;34.41
51239;BME280;38154;47.548;18.828;2023-07-29T10:33:09;98385.31;;;36.13;32.36
51239;BME280;38154;47.548;18.828;2023-07-29T10:35:37;98391.66;;;37.57;32.12
51239;BME280;38154;47.548;18.828;2023-07-29T10:38:03;98392.97;;;39.34;28.18
51239;BME280;38154;47.548;18.828;2023-07-29T10:40:53;98401.47;;;39.61;27.20
51239;BME280;38154;47.548;18.828;2023-07-29T10:43:27;98401.13;;;40.08;27.46
51239;BME280;38154;47.548;18.828;2023-07-29T10:45:55;98401.03;;;39.58;26.56
51239;BME280;38154;47.548;18.828;2023-07-29T10:51:23;98393.22;;;39.40;27.43
51239;BME280;38154;47.548;18.828;2023-07-29T10:53:57;98390.38;;;40.06;26.88
51239;BME280;38154;47.548;18.828;2023-07-29T10:56:30;98384.94;;;38.52;27.98
51239;BME280;38154;47.548;18.828;2023-07-29T11:01:54;98380.22;;;38.08;28.87
51239;BME280;38154;47.548;18.828;2023-07-29T11:09:40;98388.78;;;39.02;26.37
51239;BME280;38154;47.548;18.828;2023-07-29T11:15:03;98382.97;;;37.61;27.24
51239;BME280;38154;47.548;18.828;2023-07-29T11:17:32;98376.63;;;37.46;30.72
51239;BME280;38154;47.548;18.828;2023-07-29T11:20:01;98392.00;;;38.61;27.63
51239;BME280;38154;47.548;18.828;2023-07-29T11:22:28;98379.59;;;38.73;27.38
51239;BME280;38154;47.548;18.828;2023-07-29T11:24:54;98381.56;;;38.65;27.86
51239;BME280;38154;47.548;18.828;2023-07-29T11:27:20;98379.41;;;36.90;29.84
51239;BME280;38154;47.548;18.828;2023-07-29T11:29:47;98380.69;;;35.56;31.93
51239;BME280;38154;47.548;18.828;2023-07-29T11:32:13;98379.38;;;35.09;34.34
51239;BME280;38154;47.548;18.828;2023-07-29T11:34:41;98369.75;;;34.19;34.40
51239;BME280;38154;47.548;18.828;2023-07-29T11:37:09;98380.34;;;34.91;33.15
51239;BME280;38154;47.548;18.828;2023-07-29T11:39:43;98373.47;;;36.22;30.95
51239;BME280;38154;47.548;18.828;2023-07-29T11:42:14;98372.63;;;37.25;29.80
51239;BME280;38154;47.548;18.828;2023-07-29T11:44:40;98371.25;;;35.76;31.79
51239;BME280;38154;47.548;18.828;2023-07-29T11:47:10;98368.03;;;36.30;32.28
51239;BME280;38154;47.548;18.828;2023-07-29T11:49:38;98364.94;;;35.35;32.46
51239;BME280;38154;47.548;18.828;2023-07-29T11:52:09;98364.09;;;34.65;34.43
51239;BME280;38154;47.548;18.828;2023-07-29T11:54:36;98360.16;;;34.78;35.30
51239;BME280;38154;47.548;18.828;2023-07-29T11:57:07;98354.37;;;34.46;34.63
51239;BME280;38154;47.548;18.828;2023-07-29T11:59:35;98362.69;;;34.27;34.93
51239;BME280;38154;47.548;18.828;2023-07-29T12:02:02;98346.31;;;34.10;33.69
51239;BME280;38154;47.548;18.828;2023-07-29T12:04:31;98344.63;;;33.47;36.00
51239;BME280;38154;47.548;18.828;2023-07-29T12:06:58;98348.22;;;33.20;36.13
51239;BME280;38154;47.548;18.828;2023-07-29T12:09:25;98340.06;;;32.74;37.69
51239;BME280;38154;47.548;18.828;2023-07-29T12:11:52;98340.97;;;32.92;38.06
51239;BME280;38154;47.548;18.828;2023-07-29T12:14:18;98338.06;;;32.39;37.53
51239;BME280;38154;47.548;18.828;2023-07-29T12:16:44;98324.56;;;31.52;38.58
51239;BME280;38154;47.548;18.828;2023-07-29T12:19:14;98335.00;;;31.16;40.02
51239;BME280;38154;47.548;18.828;2023-07-29T12:21:41;98332.41;;;30.95;40.43
51239;BME280;38154;47.548;18.828;2023-07-29T12:24:07;98336.28;;;31.12;40.62
51239;BME280;38154;47.548;18.828;2023-07-29T12:26:35;98325.41;;;31.53;39.42
51239;BME280;38154;47.548;18.828;2023-07-29T12:29:12;98335.88;;;32.14;39.13
51239;BME280;38154;47.548;18.828;2023-07-29T12:31:38;98321.44;;;31.57;40.36
51239;BME280;38154;47.548;18.828;2023-07-29T12:34:04;98327.19;;;31.13;39.27
51239;BME280;38154;47.548;18.828;2023-07-29T12:36:45;98320.59;;;31.56;38.89
51239;BME280;38154;47.548;18.828;2023-07-29T12:39:32;98326.53;;;31.89;39.84
51239;BME280;38154;47.548;18.828;2023-07-29T12:42:00;98318.88;;;31.65;39.35
51239;BME280;38154;47.548;18.828;2023-07-29T12:44:34;98322.00;;;31.70;40.20
51239;BME280;38154;47.548;18.828;2023-07-29T12:47:02;98316.87;;;32.06;39.79
51239;BME280;38154;47.548;18.828;2023-07-29T12:49:31;98311.63;;;32.42;39.05
51239;BME280;38154;47.548;18.828;2023-07-29T12:51:58;98305.62;;;32.48;40.19
51239;BME280;38154;47.548;18.828;2023-07-29T12:54:24;98306.53;;;32.95;37.43
51239;BME280;38154;47.548;18.828;2023-07-29T12:56:50;98311.44;;;33.09;37.43
51239;BME280;38154;47.548;18.828;2023-07-29T12:59:17;98310.53;;;33.18;36.18
51239;BME280;38154;47.548;18.828;2023-07-29T13:01:43;98306.22;;;32.42;36.58